Latest Coastal Weather Observations for Mandurah

IDW60701

Issued at 6:52 pm WST Sunday 19 April 2015 (issued every 10 minutes, with the page automatically refreshed every 10 minutes)

About coastal observations | Map of coastal stations | Coastal observations for WA | Marine services | Other Formats
Station Details ID: 009977 Name: MANDURAH Lat: -32.52 Lon: 115.71 Height: 3.0 m
Data from the previous 72 hours. | See also: Recent months at Mandurah
Date/Time
WST
Temp

°C
Wind Pressure Rain
since 9am
mm
Weather Cloud Vis
km
Sea
Height
m
Swell
Dir
 
Speed
knots
Gust
knots
hPa Trend Height
m
Period
s
Dir
19/06:30pm 23.0 ESE 3 4 1024.4 - 0.0 - - - - - - -
19/06:00pm 24.5 ESE 3 5 1024.2 - 0.0 - - - - - - -
19/05:30pm 26.6 E 4 6 1023.8 - 0.0 - - - - - - -
19/05:00pm 27.5 E 6 9 1023.5 - 0.0 - - - - - - -
19/04:30pm 27.8 ENE 5 9 1023.4 - 0.0 - - - - - - -
19/04:00pm 27.9 E 7 12 1023.6 - 0.0 - - - - - - -
19/03:30pm 28.3 E 5 10 1023.7 - 0.0 - - - - - - -
19/03:00pm 28.7 E 5 8 1023.8 - 0.0 - - - - - - -
19/02:30pm 28.5 ENE 6 9 1023.8 - 0.0 - - - - - - -
19/02:00pm 28.1 ENE 7 11 1024.0 - 0.0 - - - - - - -
19/01:30pm 27.8 ENE 4 9 1024.2 - 0.0 - - - - - - -
19/01:00pm 26.4 NE 6 9 1024.7 - 0.0 - - - - - - -
19/12:30pm 25.6 NE 8 11 1025.1 - 0.0 - - - - - - -
19/12:00pm 25.2 NE 10 13 1025.6 - 0.0 - - - - - - -
19/11:30am 24.5 NE 13 18 1025.8 - 0.0 - - - - - - -
19/11:00am 23.7 NE 13 18 1026.2 - 0.0 - - - - - - -
19/10:30am 23.0 NE 14 18 1026.3 - 0.0 - - - - - - -
19/10:00am 22.1 NE 14 20 1026.5 - 0.0 - - - - - - -
19/09:30am 21.1 NE 16 22 1026.5 - 0.0 - - - - - - -
19/09:00am 20.4 NE 11 18 1026.6 - 0.0 - - - - - - -
19/08:30am 18.9 ENE 10 13 1026.5 - 0.0 - - - - - - -
19/08:00am 17.5 ENE 6 10 1026.2 - 0.0 - - - - - - -
19/07:30am 16.2 ENE 4 6 1025.8 - 0.0 - - - - - - -
19/07:00am 15.7 ENE 4 8 1025.4 - 0.0 - - - - - - -
19/06:30am 15.7 ENE 4 5 1025.2 - 0.0 - - - - - - -
19/06:00am 16.0 ENE 4 7 1024.9 - 0.0 - - - - - - -
19/05:30am 16.3 ENE 5 9 1024.7 - 0.0 - - - - - - -
19/05:00am 16.5 ENE 6 9 1024.4 - 0.0 - - - - - - -
19/04:30am 16.7 ENE 6 9 1024.1 - 0.0 - - - - - - -
19/04:00am 17.0 ENE 8 13 1023.9 - 0.0 - - - - - - -
19/03:30am 16.6 E 8 15 1023.7 - 0.0 - - - - - - -
19/03:00am 16.2 E 4 7 1023.8 - 0.0 - - - - - - -
19/02:30am 16.5 E 6 11 1024.0 - 0.0 - - - - - - -
19/02:00am 16.7 E 9 16 1024.1 - 0.0 - - - - - - -
19/01:30am 16.9 E 8 13 1024.2 - 0.0 - - - - - - -
19/01:00am 17.2 E 7 12 1024.1 - 0.0 - - - - - - -
19/12:30am 17.4 ESE 5 8 1024.3 - 0.0 - - - - - - -
19/12:00am 17.8 E 6 12 1024.3 - 0.0 - - - - - - -
 
Date/Time
WST
Temp

°C
Wind Pressure Rain
since 9am
mm
Weather Cloud Vis
km
Sea
Height
m
Swell
Dir
 
Speed
knots
Gust
knots
hPa Trend Height
m
Period
s
Dir
18/11:30pm 17.9 E 5 8 1024.3 - 0.0 - - - - - - -
18/11:00pm 18.1 E 6 11 1024.4 - 0.0 - - - - - - -
18/10:30pm 18.0 E 4 5 1024.5 - 0.0 - - - - - - -
18/10:00pm 18.3 ESE 4 6 1024.5 - 0.0 - - - - - - -
18/09:30pm 18.8 ESE 7 10 1024.4 - 0.0 - - - - - - -
18/09:00pm 19.1 ESE 7 9 1024.0 - 0.0 - - - - - - -
18/08:30pm 19.4 ESE 6 7 1023.8 - 0.0 - - - - - - -
18/08:00pm 19.5 ESE 4 6 1023.6 - 0.0 - - - - - - -
18/07:30pm 20.4 SSE 3 6 1023.3 - 0.0 - - - - - - -
18/07:00pm 20.7 CALM 0 3 1023.0 - 0.0 - - - - - - -
18/06:30pm 21.1 SSW 3 5 1022.7 - 0.0 - - - - - - -
18/06:00pm 21.7 S 4 6 1022.4 - 0.0 - - - - - - -
18/05:30pm 22.6 S 4 7 1022.1 - 0.0 - - - - - - -
18/05:00pm 23.5 SSW 5 8 1022.0 - 0.0 - - - - - - -
18/04:30pm 23.2 SW 6 8 1021.9 - 0.0 - - - - - - -
18/04:00pm 24.3 WSW 5 8 1021.9 - 0.0 - - - - - - -
18/03:30pm 23.6 WSW 8 11 1021.9 - 0.0 - - - - - - -
18/03:00pm 23.5 SW 8 10 1021.9 - 0.0 - - - - - - -
18/02:30pm 25.4 WSW 6 7 1022.0 - 0.0 - - - - - - -
18/02:00pm 25.1 W 4 8 1022.2 - 0.0 - - - - - - -
18/01:30pm 24.3 WNW 5 9 1022.4 - 0.0 - - - - - - -
18/01:00pm 24.4 NNW 4 7 1022.8 - 0.0 - - - - - - -
18/12:30pm 26.4 ENE 5 10 1023.2 - 0.0 - - - - - - -
18/12:00pm 25.3 E 3 5 1023.6 - 0.0 - - - - - - -
18/11:30am 24.4 ESE 4 9 1023.9 - 0.0 - - - - - - -
18/11:00am 24.0 ENE 5 7 1024.1 - 0.0 - - - - - - -
18/10:30am 23.0 E 3 4 1024.2 - 0.0 - - - - - - -
18/10:00am 21.1 ESE 5 7 1024.4 - 0.0 - - - - - - -
18/09:30am 19.8 E 7 11 1024.7 - 0.0 - - - - - - -
18/09:00am 18.1 E 7 13 1024.6 - 0.0 - - - - - - -
18/08:30am 16.4 E 4 7 1024.6 - 0.0 - - - - - - -
18/08:00am 15.4 ESE 4 6 1024.4 - 0.0 - - - - - - -
18/07:30am 14.4 SE 4 6 1023.9 - 0.0 - - - - - - -
18/07:00am 13.9 SE 4 6 1023.6 - 0.0 - - - - - - -
18/06:30am 13.8 ESE 4 6 1023.3 - 0.0 - - - - - - -
18/06:00am 13.9 SE 5 6 1023.3 - 0.0 - - - - - - -
18/05:30am 14.3 SE 6 7 1023.2 - 0.0 - - - - - - -
18/05:00am 14.7 SSE 6 9 1023.0 - 0.0 - - - - - - -
18/04:30am 14.7 SE 6 10 1022.9 - 0.0 - - - - - - -
18/04:00am 14.9 SE 7 10 1022.8 - 0.0 - - - - - - -
18/03:30am 14.5 SE 6 9 1022.8 - 0.0 - - - - - - -
18/03:00am 14.8 SE 5 8 1022.9 - 0.0 - - - - - - -
18/02:30am 15.0 SE 7 9 1022.9 - 0.0 - - - - - - -
18/02:00am 15.1 SE 6 8 1023.1 - 0.0 - - - - - - -
18/01:30am 15.6 SE 9 13 1023.1 - 0.0 - - - - - - -
18/01:00am 15.7 SSE 7 10 1023.0 - 0.0 - - - - - - -
18/12:30am 15.6 SSE 7 11 1022.7 - 0.0 - - - - - - -
18/12:00am 15.7 SSE 7 11 1022.7 - 0.0 - - - - - - -
 
Date/Time
WST
Temp

°C
Wind Pressure Rain
since 9am
mm
Weather Cloud Vis
km
Sea
Height
m
Swell
Dir
 
Speed
knots
Gust
knots
hPa Trend Height
m
Period
s
Dir
17/11:30pm 16.3 SSE 8 12 1022.7 - 0.0 - - - - - - -
17/11:00pm 16.9 SSE 8 12 1022.8 - 0.0 - - - - - - -
17/10:30pm 17.3 S 9 13 1022.9 - 0.0 - - - - - - -
17/10:00pm 17.1 S 5 8 1023.1 - 0.0 - - - - - - -
17/09:30pm 17.5 SSE 5 7 1023.1 - 0.0 - - - - - - -
17/09:00pm 18.0 S 5 7 1023.2 - 0.0 - - - - - - -
17/08:30pm 18.1 S 4 6 1023.1 - 0.0 - - - - - - -
17/08:00pm 18.3 S 5 7 1023.1 - 0.0 - - - - - - -
17/07:30pm 18.4 S 6 9 1023.0 - 0.0 - - - - - - -
17/07:00pm 18.6 S 6 9 1022.8 - 0.0 - - - - - - -
17/06:30pm 18.8 S 7 11 1022.4 - 0.0 - - - - - - -
17/06:00pm 19.1 SSW 7 12 1022.2 - 0.0 - - - - - - -
17/05:30pm 19.9 SSW 7 10 1021.8 - 0.0 - - - - - - -
17/05:00pm 20.8 SSW 7 11 1021.7 - 0.0 - - - - - - -
17/04:30pm 21.4 SSW 6 9 1021.6 - 0.0 - - - - - - -
17/04:00pm 21.5 SSW 7 12 1021.6 - 0.0 - - - - - - -
17/03:30pm 22.1 S 6 10 1021.8 - 0.0 - - - - - - -
17/03:00pm 22.0 S 8 11 1022.0 - 0.0 - - - - - - -
17/02:30pm 21.9 WSW 8 12 1022.2 - 0.0 - - - - - - -
17/02:00pm 21.6 WSW 7 10 1022.6 - 0.0 - - - - - - -
17/01:30pm 21.3 WSW 6 8 1022.9 - 0.0 - - - - - - -
17/01:00pm 21.4 W 6 9 1023.2 - 0.0 - - - - - - -
17/12:30pm 20.9 NW 5 6 1023.8 - 0.0 - - - - - - -
17/12:00pm 20.0 NW 4 5 1024.7 - 0.0 - - - - - - -
17/11:30am 20.7 NW 3 5 1025.3 - 0.0 - - - - - - -
17/11:00am 20.1 NNW 3 4 1025.7 - 0.0 - - - - - - -
17/10:30am 19.9 NW 2 3 1026.0 - 0.0 - - - - - - -
17/10:00am 19.2 CALM 0 2 1025.9 - 0.0 - - - - - - -
17/09:30am 18.5 NE 2 2 1026.1 - 0.0 - - - - - - -
17/09:00am 16.8 CALM 0 0 1026.3 - 0.0 - - - - - - -
17/08:30am 15.0 S 2 2 1026.3 - 0.0 - - - - - - -
17/08:00am 14.1 SSE 2 3 1026.1 - 0.0 - - - - - - -
17/07:30am 13.2 SSE 2 2 1025.7 - 0.0 - - - - - - -
17/07:00am 12.8 S 3 4 1025.3 - 0.0 - - - - - - -
17/06:30am 12.7 SE 3 3 1025.4 - 0.0 - - - - - - -
17/06:00am 12.7 SE 3 5 1025.4 - 0.0 - - - - - - -
17/05:30am 12.4 ESE 4 5 1025.6 - 0.0 - - - - - - -
17/05:00am 12.5 ESE 4 5 1025.7 - 0.0 - - - - - - -
17/04:30am 12.9 ESE 4 5 1025.9 - 0.0 - - - - - - -
17/04:00am 13.5 SSE 4 5 1026.1 - 0.0 - - - - - - -
17/03:30am 13.3 SE 5 7 1026.2 - 0.0 - - - - - - -
17/03:00am 13.4 SE 5 7 1026.4 - 0.0 - - - - - - -
17/02:30am 13.7 SE 6 8 1026.7 - 0.0 - - - - - - -
17/02:00am 14.0 SE 5 8 1027.1 - 0.0 - - - - - - -
17/01:30am 14.9 SSE 5 6 1027.4 - 0.0 - - - - - - -
17/01:00am 15.1 S 4 6 1027.4 - 0.0 - - - - - - -
17/12:30am 15.2 SE 4 5 1027.1 - 0.0 - - - - - - -
17/12:00am 14.4 SE 3 4 1027.1 - 0.0 - - - - - - -
 
Date/Time
WST
Temp

°C
Wind Pressure Rain
since 9am
mm
Weather Cloud Vis
km
Sea
Height
m
Swell
Dir
 
Speed
knots
Gust
knots
hPa Trend Height
m
Period
s
Dir
16/11:30pm 15.4 SE 3 4 1027.2 - 0.0 - - - - - - -
16/11:00pm 15.9 SE 4 5 1027.4 - 0.0 - - - - - - -
16/10:30pm 16.6 SSE 4 5 1027.9 - 0.0 - - - - - - -
16/10:00pm 16.9 SE 6 7 1028.0 - 0.0 - - - - - - -
16/09:30pm 17.3 SE 4 6 1028.1 - 0.0 - - - - - - -
16/09:00pm 18.0 SSE 5 7 1028.0 - 0.0 - - - - - - -
16/08:30pm 18.0 SE 5 6 1027.8 - 0.0 - - - - - - -
16/08:00pm 17.6 SE 3 5 1027.5 - 0.0 - - - - - - -
16/07:30pm 18.1 ESE 4 7 1027.4 - 0.0 - - - - - - -
16/07:00pm 19.1 SE 5 7 1027.4 - 0.0 - - - - - - -

Other Formats:

Comma delimited format used in spreadsheet applications
http://www.bom.gov.au/fwo/IDW60701/IDW60701.94605.axf

JavaScript Object Notation format (JSON) in row-major order
http://www.bom.gov.au/fwo/IDW60701/IDW60701.94605.json